sensor_id;sensor_type;location;lat;lon;timestamp;temperature;humidity
33988;DHT22;37428;53.580;-1.666;2023-05-10T00:02:19;10.30;79.20
33988;DHT22;37428;53.580;-1.666;2023-05-10T00:05:21;10.20;80.00
33988;DHT22;37428;53.580;-1.666;2023-05-10T00:08:25;10.20;80.10
33988;DHT22;37428;53.580;-1.666;2023-05-10T00:11:27;10.20;80.20
33988;DHT22;37428;53.580;-1.666;2023-05-10T00:14:29;10.30;79.90
33988;DHT22;37428;53.580;-1.666;2023-05-10T00:17:31;10.40;79.80
33988;DHT22;37428;53.580;-1.666;2023-05-10T00:20:33;10.40;79.40
33988;DHT22;37428;53.580;-1.666;2023-05-10T00:23:37;10.40;80.10
33988;DHT22;37428;53.580;-1.666;2023-05-10T00:26:39;10.40;80.20
33988;DHT22;37428;53.580;-1.666;2023-05-10T00:29:42;10.40;79.90
33988;DHT22;37428;53.580;-1.666;2023-05-10T00:32:44;10.40;80.60
33988;DHT22;37428;53.580;-1.666;2023-05-10T00:35:48;10.40;80.20
33988;DHT22;37428;53.580;-1.666;2023-05-10T00:38:52;10.40;80.50
33988;DHT22;37428;53.580;-1.666;2023-05-10T00:41:54;10.40;80.70
33988;DHT22;37428;53.580;-1.666;2023-05-10T00:44:57;10.50;80.50
33988;DHT22;37428;53.580;-1.666;2023-05-10T00:48:00;10.40;80.40
33988;DHT22;37428;53.580;-1.666;2023-05-10T00:51:03;10.40;81.20
33988;DHT22;37428;53.580;-1.666;2023-05-10T00:54:06;10.40;80.70
33988;DHT22;37428;53.580;-1.666;2023-05-10T00:57:09;10.40;80.70
33988;DHT22;37428;53.580;-1.666;2023-05-10T01:00:12;10.40;80.80
33988;DHT22;37428;53.580;-1.666;2023-05-10T01:03:18;10.40;81.30
33988;DHT22;37428;53.580;-1.666;2023-05-10T01:06:21;10.50;81.30
33988;DHT22;37428;53.580;-1.666;2023-05-10T01:09:25;10.40;81.10
33988;DHT22;37428;53.580;-1.666;2023-05-10T01:12:27;10.40;81.20
33988;DHT22;37428;53.580;-1.666;2023-05-10T01:15:30;10.40;81.30
33988;DHT22;37428;53.580;-1.666;2023-05-10T01:18:34;10.40;81.40
33988;DHT22;37428;53.580;-1.666;2023-05-10T01:21:43;10.40;81.20
33988;DHT22;37428;53.580;-1.666;2023-05-10T01:25:15;10.30;81.00
33988;DHT22;37428;53.580;-1.666;2023-05-10T01:28:39;10.30;81.50
33988;DHT22;37428;53.580;-1.666;2023-05-10T01:32:14;10.30;81.30
33988;DHT22;37428;53.580;-1.666;2023-05-10T01:35:25;10.30;81.10
33988;DHT22;37428;53.580;-1.666;2023-05-10T01:38:36;10.30;81.10
33988;DHT22;37428;53.580;-1.666;2023-05-10T01:41:51;10.30;81.50
33988;DHT22;37428;53.580;-1.666;2023-05-10T01:44:58;10.20;81.70
33988;DHT22;37428;53.580;-1.666;2023-05-10T01:48:09;10.20;81.40
33988;DHT22;37428;53.580;-1.666;2023-05-10T01:51:12;10.20;81.70
33988;DHT22;37428;53.580;-1.666;2023-05-10T01:54:15;10.20;82.20
33988;DHT22;37428;53.580;-1.666;2023-05-10T01:57:20;10.20;82.50
33988;DHT22;37428;53.580;-1.666;2023-05-10T02:00:24;10.10;82.70
33988;DHT22;37428;53.580;-1.666;2023-05-10T02:03:28;10.20;83.10
33988;DHT22;37428;53.580;-1.666;2023-05-10T02:06:32;10.20;83.10
33988;DHT22;37428;53.580;-1.666;2023-05-10T02:09:35;10.10;82.80
33988;DHT22;37428;53.580;-1.666;2023-05-10T02:12:41;10.00;83.30
33988;DHT22;37428;53.580;-1.666;2023-05-10T02:15:45;9.90;83.50
33988;DHT22;37428;53.580;-1.666;2023-05-10T02:18:52;9.90;83.90
33988;DHT22;37428;53.580;-1.666;2023-05-10T02:21:57;9.90;83.80
33988;DHT22;37428;53.580;-1.666;2023-05-10T02:25:01;9.90;83.70
33988;DHT22;37428;53.580;-1.666;2023-05-10T02:28:04;9.90;83.90
33988;DHT22;37428;53.580;-1.666;2023-05-10T02:31:07;9.90;84.50
33988;DHT22;37428;53.580;-1.666;2023-05-10T02:34:13;9.90;84.70
33988;DHT22;37428;53.580;-1.666;2023-05-10T02:37:16;9.90;85.20
33988;DHT22;37428;53.580;-1.666;2023-05-10T02:40:19;9.90;85.70
33988;DHT22;37428;53.580;-1.666;2023-05-10T02:43:23;10.00;86.10
33988;DHT22;37428;53.580;-1.666;2023-05-10T02:46:26;10.00;86.70
33988;DHT22;37428;53.580;-1.666;2023-05-10T02:49:30;10.10;87.20
33988;DHT22;37428;53.580;-1.666;2023-05-10T02:52:39;10.10;87.50
33988;DHT22;37428;53.580;-1.666;2023-05-10T02:55:43;10.10;87.70
33988;DHT22;37428;53.580;-1.666;2023-05-10T02:58:48;10.10;87.80
33988;DHT22;37428;53.580;-1.666;2023-05-10T03:01:50;10.10;88.40
33988;DHT22;37428;53.580;-1.666;2023-05-10T03:04:53;10.20;88.20
33988;DHT22;37428;53.580;-1.666;2023-05-10T03:07:56;10.30;87.90
33988;DHT22;37428;53.580;-1.666;2023-05-10T03:11:01;10.30;87.80
33988;DHT22;37428;53.580;-1.666;2023-05-10T03:14:14;10.20;88.00
33988;DHT22;37428;53.580;-1.666;2023-05-10T03:17:23;10.20;87.70
33988;DHT22;37428;53.580;-1.666;2023-05-10T03:20:33;10.20;87.90
33988;DHT22;37428;53.580;-1.666;2023-05-10T03:23:41;10.20;87.70
33988;DHT22;37428;53.580;-1.666;2023-05-10T03:26:45;10.20;87.70
33988;DHT22;37428;53.580;-1.666;2023-05-10T03:29:49;10.10;88.10
33988;DHT22;37428;53.580;-1.666;2023-05-10T03:32:52;10.10;88.00
33988;DHT22;37428;53.580;-1.666;2023-05-10T03:35:56;10.10;88.70
33988;DHT22;37428;53.580;-1.666;2023-05-10T03:38:58;10.00;89.00
33988;DHT22;37428;53.580;-1.666;2023-05-10T03:42:00;9.90;89.30
33988;DHT22;37428;53.580;-1.666;2023-05-10T03:45:03;9.90;89.70
33988;DHT22;37428;53.580;-1.666;2023-05-10T03:48:07;9.80;89.50
33988;DHT22;37428;53.580;-1.666;2023-05-10T03:51:13;9.80;90.20
33988;DHT22;37428;53.580;-1.666;2023-05-10T03:54:15;9.70;90.00
33988;DHT22;37428;53.580;-1.666;2023-05-10T03:57:17;9.70;90.20
33988;DHT22;37428;53.580;-1.666;2023-05-10T04:00:20;9.60;90.80
33988;DHT22;37428;53.580;-1.666;2023-05-10T04:03:22;9.60;90.80
33988;DHT22;37428;53.580;-1.666;2023-05-10T04:06:27;9.50;91.80
33988;DHT22;37428;53.580;-1.666;2023-05-10T04:09:29;9.50;92.00
33988;DHT22;37428;53.580;-1.666;2023-05-10T04:12:32;9.40;92.30
33988;DHT22;37428;53.580;-1.666;2023-05-10T04:15:34;9.50;92.80
33988;DHT22;37428;53.580;-1.666;2023-05-10T04:18:36;9.60;92.50
33988;DHT22;37428;53.580;-1.666;2023-05-10T04:21:41;9.60;92.00
33988;DHT22;37428;53.580;-1.666;2023-05-10T04:24:43;9.60;91.60
33988;DHT22;37428;53.580;-1.666;2023-05-10T04:27:45;9.70;91.20
33988;DHT22;37428;53.580;-1.666;2023-05-10T04:30:48;9.70;91.00
33988;DHT22;37428;53.580;-1.666;2023-05-10T04:33:50;9.70;90.20
33988;DHT22;37428;53.580;-1.666;2023-05-10T04:36:54;9.70;90.40
33988;DHT22;37428;53.580;-1.666;2023-05-10T04:39:56;9.80;90.50
33988;DHT22;37428;53.580;-1.666;2023-05-10T04:43:00;9.80;90.50
33988;DHT22;37428;53.580;-1.666;2023-05-10T04:46:03;9.70;90.40
33988;DHT22;37428;53.580;-1.666;2023-05-10T04:49:06;9.80;90.50
33988;DHT22;37428;53.580;-1.666;2023-05-10T04:52:10;9.80;90.30
33988;DHT22;37428;53.580;-1.666;2023-05-10T04:55:12;9.80;90.00
33988;DHT22;37428;53.580;-1.666;2023-05-10T04:58:15;9.80;89.70
33988;DHT22;37428;53.580;-1.666;2023-05-10T05:01:17;9.90;89.80
33988;DHT22;37428;53.580;-1.666;2023-05-10T05:04:19;9.90;89.80
33988;DHT22;37428;53.580;-1.666;2023-05-10T05:07:25;10.00;89.00
33988;DHT22;37428;53.580;-1.666;2023-05-10T05:10:27;10.00;89.50
33988;DHT22;37428;53.580;-1.666;2023-05-10T05:13:31;10.10;89.10
33988;DHT22;37428;53.580;-1.666;2023-05-10T05:16:33;10.10;88.90
33988;DHT22;37428;53.580;-1.666;2023-05-10T05:19:35;10.20;88.70
33988;DHT22;37428;53.580;-1.666;2023-05-10T05:22:39;10.30;88.60
33988;DHT22;37428;53.580;-1.666;2023-05-10T05:25:41;10.40;88.10
33988;DHT22;37428;53.580;-1.666;2023-05-10T05:28:43;10.40;87.90
33988;DHT22;37428;53.580;-1.666;2023-05-10T05:31:45;10.60;87.60
33988;DHT22;37428;53.580;-1.666;2023-05-10T05:34:47;10.70;87.40
33988;DHT22;37428;53.580;-1.666;2023-05-10T05:37:53;10.80;87.20
33988;DHT22;37428;53.580;-1.666;2023-05-10T05:40:55;10.90;86.40
33988;DHT22;37428;53.580;-1.666;2023-05-10T05:43:57;11.10;86.00
33988;DHT22;37428;53.580;-1.666;2023-05-10T05:46:59;11.20;85.70
33988;DHT22;37428;53.580;-1.666;2023-05-10T05:50:01;11.30;84.90
33988;DHT22;37428;53.580;-1.666;2023-05-10T05:53:05;11.50;84.50
33988;DHT22;37428;53.580;-1.666;2023-05-10T05:56:08;11.60;84.60
33988;DHT22;37428;53.580;-1.666;2023-05-10T05:59:10;11.80;84.00
33988;DHT22;37428;53.580;-1.666;2023-05-10T06:02:13;11.90;83.00
33988;DHT22;37428;53.580;-1.666;2023-05-10T06:05:15;12.10;82.40
33988;DHT22;37428;53.580;-1.666;2023-05-10T06:08:19;12.30;82.20
33988;DHT22;37428;53.580;-1.666;2023-05-10T06:11:21;12.50;81.20
33988;DHT22;37428;53.580;-1.666;2023-05-10T06:14:23;12.50;81.40
33988;DHT22;37428;53.580;-1.666;2023-05-10T06:17:25;12.60;80.70
33988;DHT22;37428;53.580;-1.666;2023-05-10T06:20:28;12.80;81.00
33988;DHT22;37428;53.580;-1.666;2023-05-10T06:23:33;13.00;80.20
33988;DHT22;37428;53.580;-1.666;2023-05-10T06:26:37;13.10;80.10
33988;DHT22;37428;53.580;-1.666;2023-05-10T06:29:40;13.20;80.10
33988;DHT22;37428;53.580;-1.666;2023-05-10T06:32:42;13.40;79.00
33988;DHT22;37428;53.580;-1.666;2023-05-10T06:35:45;13.40;78.80
33988;DHT22;37428;53.580;-1.666;2023-05-10T06:38:49;13.60;78.10
33988;DHT22;37428;53.580;-1.666;2023-05-10T06:41:51;13.70;77.40
33988;DHT22;37428;53.580;-1.666;2023-05-10T06:44:55;13.90;76.30
33988;DHT22;37428;53.580;-1.666;2023-05-10T06:47:57;14.00;76.00
33988;DHT22;37428;53.580;-1.666;2023-05-10T06:50:59;14.10;74.50
33988;DHT22;37428;53.580;-1.666;2023-05-10T06:54:03;14.20;74.10
33988;DHT22;37428;53.580;-1.666;2023-05-10T06:57:05;14.30;74.40
33988;DHT22;37428;53.580;-1.666;2023-05-10T07:00:07;14.50;73.30
33988;DHT22;37428;53.580;-1.666;2023-05-10T07:03:10;14.70;73.30
33988;DHT22;37428;53.580;-1.666;2023-05-10T07:06:13;14.80;71.80
33988;DHT22;37428;53.580;-1.666;2023-05-10T07:09:17;14.90;70.70
33988;DHT22;37428;53.580;-1.666;2023-05-10T07:12:19;15.00;70.80
33988;DHT22;37428;53.580;-1.666;2023-05-10T07:15:21;15.20;69.60
33988;DHT22;37428;53.580;-1.666;2023-05-10T07:18:23;15.70;69.60
33988;DHT22;37428;53.580;-1.666;2023-05-10T07:21:25;15.90;68.60
33988;DHT22;37428;53.580;-1.666;2023-05-10T07:24:31;15.70;68.40
33988;DHT22;37428;53.580;-1.666;2023-05-10T07:27:33;15.50;69.40
33988;DHT22;37428;53.580;-1.666;2023-05-10T07:30:35;15.20;69.40
33988;DHT22;37428;53.580;-1.666;2023-05-10T07:33:38;15.10;69.10
33988;DHT22;37428;53.580;-1.666;2023-05-10T07:36:40;15.20;69.50
33988;DHT22;37428;53.580;-1.666;2023-05-10T07:39:44;15.00;70.40
33988;DHT22;37428;53.580;-1.666;2023-05-10T07:42:46;14.80;72.50
33988;DHT22;37428;53.580;-1.666;2023-05-10T07:45:48;14.70;73.40
33988;DHT22;37428;53.580;-1.666;2023-05-10T07:48:50;14.50;72.90
33988;DHT22;37428;53.580;-1.666;2023-05-10T07:51:52;14.30;73.80
33988;DHT22;37428;53.580;-1.666;2023-05-10T07:54:56;14.30;72.60
33988;DHT22;37428;53.580;-1.666;2023-05-10T07:57:58;14.30;72.80
33988;DHT22;37428;53.580;-1.666;2023-05-10T08:01:01;14.40;73.30
33988;DHT22;37428;53.580;-1.666;2023-05-10T08:04:03;14.50;73.10
33988;DHT22;37428;53.580;-1.666;2023-05-10T08:07:05;14.50;72.80
33988;DHT22;37428;53.580;-1.666;2023-05-10T08:10:10;14.50;72.50
33988;DHT22;37428;53.580;-1.666;2023-05-10T08:13:12;14.50;72.40
33988;DHT22;37428;53.580;-1.666;2023-05-10T08:16:14;14.50;71.80
33988;DHT22;37428;53.580;-1.666;2023-05-10T08:19:17;14.60;72.00
33988;DHT22;37428;53.580;-1.666;2023-05-10T08:22:22;14.70;70.90
33988;DHT22;37428;53.580;-1.666;2023-05-10T08:25:25;14.60;71.30
33988;DHT22;37428;53.580;-1.666;2023-05-10T08:28:28;14.60;71.20
33988;DHT22;37428;53.580;-1.666;2023-05-10T08:31:30;14.50;71.60
33988;DHT22;37428;53.580;-1.666;2023-05-10T08:34:32;14.40;71.40
33988;DHT22;37428;53.580;-1.666;2023-05-10T08:37:34;14.40;72.70
33988;DHT22;37428;53.580;-1.666;2023-05-10T08:40:39;14.50;72.50
33988;DHT22;37428;53.580;-1.666;2023-05-10T08:43:43;14.60;72.80
33988;DHT22;37428;53.580;-1.666;2023-05-10T08:46:47;14.60;71.50
33988;DHT22;37428;53.580;-1.666;2023-05-10T08:49:54;14.50;72.30
33988;DHT22;37428;53.580;-1.666;2023-05-10T08:52:59;14.60;71.80
33988;DHT22;37428;53.580;-1.666;2023-05-10T08:56:04;14.70;71.40
33988;DHT22;37428;53.580;-1.666;2023-05-10T08:59:06;14.80;72.30
33988;DHT22;37428;53.580;-1.666;2023-05-10T09:02:10;14.80;71.20
33988;DHT22;37428;53.580;-1.666;2023-05-10T09:05:13;14.90;71.20
33988;DHT22;37428;53.580;-1.666;2023-05-10T09:08:17;15.60;70.20
33988;DHT22;37428;53.580;-1.666;2023-05-10T09:11:22;16.10;67.60
33988;DHT22;37428;53.580;-1.666;2023-05-10T09:14:26;16.70;66.90
33988;DHT22;37428;53.580;-1.666;2023-05-10T09:17:29;17.30;63.40
33988;DHT22;37428;53.580;-1.666;2023-05-10T09:20:31;17.60;63.90
33988;DHT22;37428;53.580;-1.666;2023-05-10T09:23:34;17.80;61.00
33988;DHT22;37428;53.580;-1.666;2023-05-10T09:26:46;17.90;61.10
33988;DHT22;37428;53.580;-1.666;2023-05-10T09:29:50;18.20;60.90
33988;DHT22;37428;53.580;-1.666;2023-05-10T09:32:55;17.90;61.50
33988;DHT22;37428;53.580;-1.666;2023-05-10T09:36:06;17.40;59.30
33988;DHT22;37428;53.580;-1.666;2023-05-10T09:39:10;17.10;61.60
33988;DHT22;37428;53.580;-1.666;2023-05-10T09:42:18;16.70;61.70
33988;DHT22;37428;53.580;-1.666;2023-05-10T09:45:20;16.60;63.30
33988;DHT22;37428;53.580;-1.666;2023-05-10T09:48:24;16.80;63.80
33988;DHT22;37428;53.580;-1.666;2023-05-10T09:51:26;16.70;62.00
33988;DHT22;37428;53.580;-1.666;2023-05-10T09:54:28;16.70;61.60
33988;DHT22;37428;53.580;-1.666;2023-05-10T09:57:32;16.80;61.00
33988;DHT22;37428;53.580;-1.666;2023-05-10T10:00:35;16.90;60.50
33988;DHT22;37428;53.580;-1.666;2023-05-10T10:03:41;16.90;61.10
33988;DHT22;37428;53.580;-1.666;2023-05-10T10:06:44;16.80;60.20
33988;DHT22;37428;53.580;-1.666;2023-05-10T10:09:46;16.60;61.80
33988;DHT22;37428;53.580;-1.666;2023-05-10T10:12:50;16.30;63.00
33988;DHT22;37428;53.580;-1.666;2023-05-10T10:15:52;16.00;68.40
33988;DHT22;37428;53.580;-1.666;2023-05-10T10:18:58;15.80;70.70
33988;DHT22;37428;53.580;-1.666;2023-05-10T10:22:00;15.70;72.30
33988;DHT22;37428;53.580;-1.666;2023-05-10T10:25:04;15.50;70.20
33988;DHT22;37428;53.580;-1.666;2023-05-10T10:28:16;15.20;73.30
33988;DHT22;37428;53.580;-1.666;2023-05-10T10:31:32;15.20;75.90
33988;DHT22;37428;53.580;-1.666;2023-05-10T10:34:36;15.10;76.90
33988;DHT22;37428;53.580;-1.666;2023-05-10T10:37:44;15.10;77.90
33988;DHT22;37428;53.580;-1.666;2023-05-10T10:40:47;15.20;78.30
33988;DHT22;37428;53.580;-1.666;2023-05-10T10:44:33;15.20;77.90
33988;DHT22;37428;53.580;-1.666;2023-05-10T10:47:35;15.30;77.90
33988;DHT22;37428;53.580;-1.666;2023-05-10T10:50:44;15.30;76.40
33988;DHT22;37428;53.580;-1.666;2023-05-10T10:53:47;15.30;75.10
33988;DHT22;37428;53.580;-1.666;2023-05-10T10:57:10;15.30;77.30
33988;DHT22;37428;53.580;-1.666;2023-05-10T11:00:25;15.40;76.40
33988;DHT22;37428;53.580;-1.666;2023-05-10T11:03:28;15.50;76.10
33988;DHT22;37428;53.580;-1.666;2023-05-10T11:06:31;15.60;76.70
33988;DHT22;37428;53.580;-1.666;2023-05-10T11:09:39;15.60;76.60
33988;DHT22;37428;53.580;-1.666;2023-05-10T11:12:51;15.70;75.70
33988;DHT22;37428;53.580;-1.666;2023-05-10T11:15:55;15.60;75.80
33988;DHT22;37428;53.580;-1.666;2023-05-10T11:19:01;15.60;74.80
33988;DHT22;37428;53.580;-1.666;2023-05-10T11:22:13;15.50;74.30
33988;DHT22;37428;53.580;-1.666;2023-05-10T11:25:15;15.40;74.70
33988;DHT22;37428;53.580;-1.666;2023-05-10T11:28:18;15.40;74.90
33988;DHT22;37428;53.580;-1.666;2023-05-10T11:31:22;15.30;72.90
33988;DHT22;37428;53.580;-1.666;2023-05-10T11:34:28;15.30;72.10
33988;DHT22;37428;53.580;-1.666;2023-05-10T11:37:30;15.30;72.50
33988;DHT22;37428;53.580;-1.666;2023-05-10T11:40:35;15.30;72.40
33988;DHT22;37428;53.580;-1.666;2023-05-10T11:43:37;15.30;71.00
33988;DHT22;37428;53.580;-1.666;2023-05-10T11:46:41;15.30;72.10
33988;DHT22;37428;53.580;-1.666;2023-05-10T11:49:44;15.30;71.50
33988;DHT22;37428;53.580;-1.666;2023-05-10T11:52:50;15.20;71.50
33988;DHT22;37428;53.580;-1.666;2023-05-10T11:55:53;15.10;71.80
33988;DHT22;37428;53.580;-1.666;2023-05-10T11:58:56;15.00;72.30
33988;DHT22;37428;53.580;-1.666;2023-05-10T12:02:00;14.90;72.60
33988;DHT22;37428;53.580;-1.666;2023-05-10T12:05:03;14.90;73.80
33988;DHT22;37428;53.580;-1.666;2023-05-10T12:08:12;14.80;74.70
33988;DHT22;37428;53.580;-1.666;2023-05-10T12:11:14;14.60;74.70
33988;DHT22;37428;53.580;-1.666;2023-05-10T12:14:17;14.50;76.20
33988;DHT22;37428;53.580;-1.666;2023-05-10T12:17:27;14.30;74.00
33988;DHT22;37428;53.580;-1.666;2023-05-10T12:20:31;14.20;76.40
33988;DHT22;37428;53.580;-1.666;2023-05-10T12:23:33;14.10;77.70
33988;DHT22;37428;53.580;-1.666;2023-05-10T12:26:35;14.10;79.60
33988;DHT22;37428;53.580;-1.666;2023-05-10T12:29:40;14.20;81.10
33988;DHT22;37428;53.580;-1.666;2023-05-10T12:32:46;14.40;79.00
33988;DHT22;37428;53.580;-1.666;2023-05-10T12:35:50;14.60;80.00
33988;DHT22;37428;53.580;-1.666;2023-05-10T12:39:02;14.80;82.60
33988;DHT22;37428;53.580;-1.666;2023-05-10T12:42:05;14.70;78.80
33988;DHT22;37428;53.580;-1.666;2023-05-10T12:45:08;14.80;80.80
33988;DHT22;37428;53.580;-1.666;2023-05-10T12:48:12;14.90;81.60
33988;DHT22;37428;53.580;-1.666;2023-05-10T12:51:14;15.10;80.90
33988;DHT22;37428;53.580;-1.666;2023-05-10T12:54:19;15.10;78.20
33988;DHT22;37428;53.580;-1.666;2023-05-10T12:57:22;15.40;79.70
33988;DHT22;37428;53.580;-1.666;2023-05-10T13:00:24;15.70;80.70
33988;DHT22;37428;53.580;-1.666;2023-05-10T13:03:28;15.90;79.80
33988;DHT22;37428;53.580;-1.666;2023-05-10T13:06:30;16.00;75.10
33988;DHT22;37428;53.580;-1.666;2023-05-10T13:09:32;16.30;74.30
33988;DHT22;37428;53.580;-1.666;2023-05-10T13:12:34;16.10;72.90
33988;DHT22;37428;53.580;-1.666;2023-05-10T13:15:37;15.90;73.90
33988;DHT22;37428;53.580;-1.666;2023-05-10T13:18:40;15.80;74.10
33988;DHT22;37428;53.580;-1.666;2023-05-10T13:21:43;15.50;73.40
33988;DHT22;37428;53.580;-1.666;2023-05-10T13:24:45;15.50;74.70
33988;DHT22;37428;53.580;-1.666;2023-05-10T13:27:47;15.30;74.30
33988;DHT22;37428;53.580;-1.666;2023-05-10T13:30:50;15.30;75.20
33988;DHT22;37428;53.580;-1.666;2023-05-10T13:33:53;15.30;74.70
33988;DHT22;37428;53.580;-1.666;2023-05-10T13:36:55;15.20;74.80
33988;DHT22;37428;53.580;-1.666;2023-05-10T13:39:58;15.20;75.30
33988;DHT22;37428;53.580;-1.666;2023-05-10T13:43:00;15.40;75.20
33988;DHT22;37428;53.580;-1.666;2023-05-10T13:46:02;15.60;74.90
33988;DHT22;37428;53.580;-1.666;2023-05-10T13:49:08;15.90;75.70
33988;DHT22;37428;53.580;-1.666;2023-05-10T13:52:11;16.30;74.80
33988;DHT22;37428;53.580;-1.666;2023-05-10T13:55:14;16.80;72.50
33988;DHT22;37428;53.580;-1.666;2023-05-10T13:58:16;17.40;69.50
33988;DHT22;37428;53.580;-1.666;2023-05-10T14:01:18;17.30;66.60
33988;DHT22;37428;53.580;-1.666;2023-05-10T14:04:22;17.00;65.40
33988;DHT22;37428;53.580;-1.666;2023-05-10T14:07:24;16.70;65.40
33988;DHT22;37428;53.580;-1.666;2023-05-10T14:10:26;16.40;66.70
33988;DHT22;37428;53.580;-1.666;2023-05-10T14:13:28;16.10;69.80
33988;DHT22;37428;53.580;-1.666;2023-05-10T14:16:30;15.70;71.30
33988;DHT22;37428;53.580;-1.666;2023-05-10T14:19:34;15.50;73.50
33988;DHT22;37428;53.580;-1.666;2023-05-10T14:22:36;15.50;76.90
33988;DHT22;37428;53.580;-1.666;2023-05-10T14:25:40;15.30;77.00
33988;DHT22;37428;53.580;-1.666;2023-05-10T14:28:42;15.20;78.20
33988;DHT22;37428;53.580;-1.666;2023-05-10T14:31:44;15.10;78.50
33988;DHT22;37428;53.580;-1.666;2023-05-10T14:34:48;15.20;79.90
33988;DHT22;37428;53.580;-1.666;2023-05-10T14:37:50;15.10;80.00
33988;DHT22;37428;53.580;-1.666;2023-05-10T14:40:57;15.10;80.30
33988;DHT22;37428;53.580;-1.666;2023-05-10T14:44:00;15.10;80.50
33988;DHT22;37428;53.580;-1.666;2023-05-10T14:47:04;15.10;80.30
33988;DHT22;37428;53.580;-1.666;2023-05-10T14:50:08;15.00;80.80
33988;DHT22;37428;53.580;-1.666;2023-05-10T14:53:10;14.90;81.30
33988;DHT22;37428;53.580;-1.666;2023-05-10T14:56:12;14.80;80.90
33988;DHT22;37428;53.580;-1.666;2023-05-10T14:59:14;14.60;81.10
33988;DHT22;37428;53.580;-1.666;2023-05-10T15:02:16;14.60;81.00
33988;DHT22;37428;53.580;-1.666;2023-05-10T15:05:20;14.50;80.80
33988;DHT22;37428;53.580;-1.666;2023-05-10T15:08:22;14.40;82.40
33988;DHT22;37428;53.580;-1.666;2023-05-10T15:11:25;14.40;82.50
33988;DHT22;37428;53.580;-1.666;2023-05-10T15:14:27;14.30;82.50
33988;DHT22;37428;53.580;-1.666;2023-05-10T15:17:29;14.20;81.50
33988;DHT22;37428;53.580;-1.666;2023-05-10T15:20:32;14.10;81.80
33988;DHT22;37428;53.580;-1.666;2023-05-10T15:23:35;14.10;81.20
33988;DHT22;37428;53.580;-1.666;2023-05-10T15:26:37;14.00;82.30
33988;DHT22;37428;53.580;-1.666;2023-05-10T15:29:40;13.80;82.30
33988;DHT22;37428;53.580;-1.666;2023-05-10T15:32:42;13.70;81.10
33988;DHT22;37428;53.580;-1.666;2023-05-10T15:35:45;13.60;81.20
33988;DHT22;37428;53.580;-1.666;2023-05-10T15:38:48;13.50;82.30
33988;DHT22;37428;53.580;-1.666;2023-05-10T15:41:51;13.50;82.50
33988;DHT22;37428;53.580;-1.666;2023-05-10T15:44:53;13.50;82.50
33988;DHT22;37428;53.580;-1.666;2023-05-10T15:47:55;13.60;83.20
33988;DHT22;37428;53.580;-1.666;2023-05-10T15:50:58;13.70;83.00
33988;DHT22;37428;53.580;-1.666;2023-05-10T15:54:01;13.80;83.60
33988;DHT22;37428;53.580;-1.666;2023-05-10T15:57:03;13.90;83.50
33988;DHT22;37428;53.580;-1.666;2023-05-10T16:00:06;14.00;83.80
33988;DHT22;37428;53.580;-1.666;2023-05-10T16:03:08;14.00;83.00
33988;DHT22;37428;53.580;-1.666;2023-05-10T16:06:12;14.00;82.80
33988;DHT22;37428;53.580;-1.666;2023-05-10T16:09:14;14.10;83.20
33988;DHT22;37428;53.580;-1.666;2023-05-10T16:12:16;14.10;83.50
33988;DHT22;37428;53.580;-1.666;2023-05-10T16:15:19;14.30;85.00
33988;DHT22;37428;53.580;-1.666;2023-05-10T16:18:21;14.80;85.20
33988;DHT22;37428;53.580;-1.666;2023-05-10T16:21:24;15.10;84.00
33988;DHT22;37428;53.580;-1.666;2023-05-10T16:24:27;15.60;83.40
33988;DHT22;37428;53.580;-1.666;2023-05-10T16:27:29;15.60;82.90
33988;DHT22;37428;53.580;-1.666;2023-05-10T16:30:33;15.40;81.20
33988;DHT22;37428;53.580;-1.666;2023-05-10T16:33:35;15.20;81.40
33988;DHT22;37428;53.580;-1.666;2023-05-10T16:36:39;14.90;81.90
33988;DHT22;37428;53.580;-1.666;2023-05-10T16:39:41;14.60;81.50
33988;DHT22;37428;53.580;-1.666;2023-05-10T16:42:43;14.50;81.60
33988;DHT22;37428;53.580;-1.666;2023-05-10T16:45:46;14.40;82.20
33988;DHT22;37428;53.580;-1.666;2023-05-10T16:48:48;14.50;82.30
33988;DHT22;37428;53.580;-1.666;2023-05-10T16:51:51;14.60;81.70
33988;DHT22;37428;53.580;-1.666;2023-05-10T16:54:53;14.60;81.40
33988;DHT22;37428;53.580;-1.666;2023-05-10T16:57:55;14.60;81.70
33988;DHT22;37428;53.580;-1.666;2023-05-10T17:01:00;14.60;81.10
33988;DHT22;37428;53.580;-1.666;2023-05-10T17:04:02;14.50;81.10
33988;DHT22;37428;53.580;-1.666;2023-05-10T17:07:06;14.50;80.90
33988;DHT22;37428;53.580;-1.666;2023-05-10T17:10:09;14.50;81.40
33988;DHT22;37428;53.580;-1.666;2023-05-10T17:13:11;14.40;80.90
33988;DHT22;37428;53.580;-1.666;2023-05-10T17:16:13;14.40;80.50
33988;DHT22;37428;53.580;-1.666;2023-05-10T17:19:15;14.30;81.50
33988;DHT22;37428;53.580;-1.666;2023-05-10T17:22:19;14.30;81.10
33988;DHT22;37428;53.580;-1.666;2023-05-10T17:25:21;14.30;81.10
33988;DHT22;37428;53.580;-1.666;2023-05-10T17:28:23;14.20;80.90
33988;DHT22;37428;53.580;-1.666;2023-05-10T17:31:25;14.20;80.40
33988;DHT22;37428;53.580;-1.666;2023-05-10T17:34:27;14.20;81.40
33988;DHT22;37428;53.580;-1.666;2023-05-10T17:37:31;14.30;81.80
33988;DHT22;37428;53.580;-1.666;2023-05-10T17:40:33;14.20;80.20
33988;DHT22;37428;53.580;-1.666;2023-05-10T17:43:36;14.30;81.30
33988;DHT22;37428;53.580;-1.666;2023-05-10T17:46:38;14.30;81.40
33988;DHT22;37428;53.580;-1.666;2023-05-10T17:49:40;14.30;80.40
33988;DHT22;37428;53.580;-1.666;2023-05-10T17:52:43;14.40;80.60
33988;DHT22;37428;53.580;-1.666;2023-05-10T17:55:46;14.30;80.30
33988;DHT22;37428;53.580;-1.666;2023-05-10T17:58:50;14.30;80.20
33988;DHT22;37428;53.580;-1.666;2023-05-10T18:01:52;14.30;80.20
33988;DHT22;37428;53.580;-1.666;2023-05-10T18:04:54;14.30;81.00
33988;DHT22;37428;53.580;-1.666;2023-05-10T18:07:59;14.30;81.90
33988;DHT22;37428;53.580;-1.666;2023-05-10T18:11:01;14.30;81.50
33988;DHT22;37428;53.580;-1.666;2023-05-10T18:14:03;14.20;81.70
33988;DHT22;37428;53.580;-1.666;2023-05-10T18:17:05;14.20;81.20
33988;DHT22;37428;53.580;-1.666;2023-05-10T18:20:08;14.20;82.00
33988;DHT22;37428;53.580;-1.666;2023-05-10T18:23:12;14.10;81.40
33988;DHT22;37428;53.580;-1.666;2023-05-10T18:26:16;14.10;80.40
33988;DHT22;37428;53.580;-1.666;2023-05-10T18:29:18;14.10;80.70
33988;DHT22;37428;53.580;-1.666;2023-05-10T18:32:22;14.00;79.40
33988;DHT22;37428;53.580;-1.666;2023-05-10T18:35:24;13.90;79.30
33988;DHT22;37428;53.580;-1.666;2023-05-10T18:38:28;13.90;79.50
33988;DHT22;37428;53.580;-1.666;2023-05-10T18:41:30;13.80;78.90
33988;DHT22;37428;53.580;-1.666;2023-05-10T18:44:32;13.70;78.20
33988;DHT22;37428;53.580;-1.666;2023-05-10T18:47:35;13.60;78.30
33988;DHT22;37428;53.580;-1.666;2023-05-10T18:50:37;13.50;78.80
33988;DHT22;37428;53.580;-1.666;2023-05-10T18:53:40;13.50;79.50
33988;DHT22;37428;53.580;-1.666;2023-05-10T18:56:43;13.40;79.80
33988;DHT22;37428;53.580;-1.666;2023-05-10T18:59:45;13.40;80.30
33988;DHT22;37428;53.580;-1.666;2023-05-10T19:02:47;13.30;80.30
33988;DHT22;37428;53.580;-1.666;2023-05-10T19:05:49;13.20;80.80